Airfield :
LOGIN :

Register | Disclaimer

   EN    FR    IT 

 










Legend :    VFR   Marginal VFR   IFR   Intensive IFR   Very Intensive IFR
Visi :
Ceiling :
>= 8 km
>= 3000ft
5 to 8 km
1000 to 3000 ft
1500m to 5 km
500 to 1000 ft
800 to 1500m
200 to 500 ft
< 800m
< 200 ft
Symbols :   Thunderstorms  Fog  Heavy snow  Heavy precipitations  Wind > 20 kt
SIGMETs :     Misc.  Thunderstorms  Icing  Turbulence  Mountain Waves  Volcanic Ashes






- Airport Elevation : 580 ft


LFOA - Avord

CURRENT METAR :
  • 281800Z AUTO 22010KT CAVOK 12/09 Q1017

EXPIRED METARs :
  • 281730Z AUTO 23013KT CAVOK 12/09 Q1016 TEMPO 26015G25KT 4000 SHRA SCT015 BKN020TCU
  • 281700Z AUTO 22009KT 9999 SCT048 BKN064 BKN080 12/10 Q1016 TEMPO 26015G25KT 4000 SHRA SCT015 BKN020TCU
  • 281630Z AUTO 23007KT 9999 FEW036 BKN049 BKN066 12/10 Q1016 TEMPO 26015G25KT 4000 SHRA SCT015 BKN020TCU
  • 281600Z AUTO 25014KT 6000 -RA FEW013/// BKN034/// BKN048/// ///CB 13/10 Q1016 TEMPO 26015G25KT 4000 SHRA
  • 281530Z AUTO 23013KT 9999 -RA BKN038/// BKN054/// BKN066/// ///CB 14/09 Q1016 TEMPO 26015G25KT 4000 SHRA

TAF TAF LFOA
Valid from the 28 at 15:00 until the 29 at 15:00 UTC


281400Z 2815/2915 23012KT 9999 SCT025 BKN050 TX16/2915Z TN10/2906Z
TEMPO 2815/2823 26015G25KT 4000 SHRA SCT015 BKN020TCU
BECMG 2900/2902 BKN012
TEMPO 2906/2911 4900 -RADZ BKN008 OVC015



MET'MAP, your aeronautical weather chart ! - Copyright ORBIFLY December 2007 - Disclaimer

ORBIFLY MET'MAP TEAM :

Programming & Development : Alexandra Zaïnal
Concept & original design : Baudouin d'Aumeries
Assistance for programming : Marc-Olivier Méhu
Technical & hardware support : Manuel Goepfert

Contact : metmap@orbifly.com




SOURCES & CREDITS :

   NOAA